Time;durP1;ratioP1;P1;durP2;ratioP2;P2;SDS_P1;SDS_P2;PMS_P1;PMS_P2;Temp;Humidity;BMP_temperature;BMP_pressure;BME280_temperature;BME280_humidity;BME280_pressure;Samples;Min_cycle;Max_cycle;Signal;HPM_P1;HPM_P2
2023/02/02 03:03:01;;;;;;;11.50;10.50;;;4.90;99.90;;;;;;4926688;23;20234;-78
2023/02/02 03:05:35;;;;;;;12.00;10.90;;;4.90;99.90;;;;;;4915942;29;20204;-77
2023/02/02 03:08:09;;;;;;;11.60;10.70;;;4.90;99.90;;;;;;4923849;29;20196;-77
2023/02/02 03:10:39;;;;;;;12.60;11.13;;;5.00;99.90;;;;;;4928040;29;20192;-79
2023/02/02 03:13:08;;;;;;;11.50;10.70;;;5.00;99.90;;;;;;4925406;29;20241;-77
2023/02/02 03:15:35;;;;;;;12.23;11.03;;;5.00;99.90;;;;;;4927378;29;20224;-77
2023/02/02 03:18:04;;;;;;;12.17;11.07;;;5.00;99.90;;;;;;4927453;29;20570;-77
2023/02/02 03:20:31;;;;;;;12.30;11.20;;;5.00;99.90;;;;;;4920683;29;20196;-77
2023/02/02 03:22:57;;;;;;;14.83;11.17;;;5.00;99.90;;;;;;4921091;29;20208;-77
2023/02/02 03:25:24;;;;;;;13.43;12.20;;;5.00;99.90;;;;;;4927625;29;20195;-77
2023/02/02 03:27:52;;;;;;;11.93;11.03;;;5.00;99.90;;;;;;4924527;29;20212;-77
2023/02/02 03:30:19;;;;;;;12.07;10.90;;;5.00;99.90;;;;;;4926756;29;20259;-77
2023/02/02 03:32:46;;;;;;;12.20;11.00;;;5.00;99.90;;;;;;4925035;29;20228;-77
2023/02/02 03:35:15;;;;;;;11.80;10.90;;;5.00;99.90;;;;;;4928201;29;20223;-80
2023/02/02 03:37:42;;;;;;;12.13;11.03;;;5.00;99.90;;;;;;4925255;29;20318;-79
2023/02/02 03:40:10;;;;;;;12.00;10.90;;;4.90;99.90;;;;;;4926111;29;20234;-77
2023/02/02 03:42:37;;;;;;;12.47;11.17;;;4.90;99.90;;;;;;4924877;29;20223;-76
2023/02/02 03:45:04;;;;;;;12.37;11.33;;;4.90;99.90;;;;;;4927560;29;20195;-77
2023/02/02 03:47:31;;;;;;;12.10;11.00;;;4.90;99.90;;;;;;4921884;29;20689;-77
2023/02/02 03:49:58;;;;;;;12.37;11.30;;;4.90;99.90;;;;;;4921158;29;20660;-77
2023/02/02 03:52:26;;;;;;;12.50;11.30;;;4.90;99.90;;;;;;4923118;29;20306;-81
2023/02/02 03:54:53;;;;;;;11.50;10.60;;;4.90;99.90;;;;;;4913554;29;20204;-80
2023/02/02 03:57:20;;;;;;;12.07;11.03;;;4.90;99.90;;;;;;4919654;29;20207;-80
2023/02/02 03:59:47;;;;;;;12.07;10.97;;;4.90;99.90;;;;;;4918513;29;20203;-81
2023/02/02 04:02:14;;;;;;;12.27;11.20;;;4.90;99.90;;;;;;4913007;29;20300;-81
2023/02/02 04:04:41;;;;;;;12.20;11.20;;;4.90;99.90;;;;;;4916745;29;20203;-82
2023/02/02 04:07:08;;;;;;;11.97;11.10;;;4.90;99.90;;;;;;4918339;29;20661;-82
2023/02/02 04:09:36;;;;;;;12.40;11.50;;;4.90;99.90;;;;;;4909426;29;20220;-82
2023/02/02 04:12:03;;;;;;;12.67;11.57;;;5.00;99.90;;;;;;4915935;29;20239;-82
2023/02/02 04:14:30;;;;;;;12.53;11.53;;;5.00;99.90;;;;;;4924597;29;20235;-81
2023/02/02 04:16:56;;;;;;;12.63;11.60;;;5.00;99.90;;;;;;4921620;29;20233;-82
2023/02/02 04:19:23;;;;;;;12.10;11.20;;;5.00;99.90;;;;;;4917177;29;20203;-80
2023/02/02 04:21:50;;;;;;;12.90;11.93;;;5.00;99.90;;;;;;4920773;29;20264;-82
2023/02/02 04:24:17;;;;;;;12.20;11.20;;;5.10;99.90;;;;;;4927001;29;20204;-80
2023/02/02 04:26:45;;;;;;;12.10;11.20;;;5.10;99.90;;;;;;4924255;29;20700;-77
2023/02/02 04:29:12;;;;;;;12.50;11.60;;;5.10;99.90;;;;;;4921183;29;20207;-77
2023/02/02 04:31:38;;;;;;;12.03;11.13;;;5.10;99.90;;;;;;4923111;29;20740;-80
2023/02/02 04:34:05;;;;;;;11.73;10.70;;;5.10;99.90;;;;;;4927618;29;20203;-81
2023/02/02 04:36:32;;;;;;;12.40;11.60;;;5.10;99.90;;;;;;4909727;29;20220;-81
2023/02/02 04:38:59;;;;;;;12.73;11.77;;;5.10;99.90;;;;;;4903524;29;20967;-81
2023/02/02 04:41:26;;;;;;;12.20;11.50;;;5.10;99.90;;;;;;4910356;29;20231;-81
2023/02/02 04:43:54;;;;;;;12.27;11.47;;;5.00;99.90;;;;;;4909067;29;20235;-80
2023/02/02 04:46:21;;;;;;;12.93;11.90;;;5.00;99.90;;;;;;4926334;29;20250;-79
2023/02/02 04:48:49;;;;;;;12.90;11.90;;;5.00;99.90;;;;;;4926301;29;20270;-79
2023/02/02 04:51:17;;;;;;;12.80;11.60;;;5.00;99.90;;;;;;4923299;29;20227;-78
2023/02/02 04:53:45;;;;;;;12.30;11.20;;;5.00;99.90;;;;;;4928893;29;20270;-79
2023/02/02 04:56:15;;;;;;;12.60;11.60;;;5.00;99.90;;;;;;4925080;29;20230;-79
2023/02/02 04:58:42;;;;;;;12.67;11.67;;;5.10;99.90;;;;;;4922963;29;20583;-78
2023/02/02 05:01:12;;;;;;;12.90;11.73;;;5.00;99.90;;;;;;4921284;29;20290;-83
2023/02/02 05:03:39;;;;;;;12.30;11.40;;;5.10;99.90;;;;;;4917088;29;20660;-81
2023/02/02 05:06:06;;;;;;;12.40;11.40;;;5.00;99.90;;;;;;4925836;29;20200;-83
2023/02/02 05:08:33;;;;;;;12.07;11.07;;;5.00;99.90;;;;;;4915057;29;20583;-82
2023/02/02 05:11:00;;;;;;;11.63;10.80;;;5.10;99.90;;;;;;4914942;29;20283;-77
2023/02/02 05:13:27;;;;;;;12.60;11.70;;;5.10;99.90;;;;;;4922795;29;20196;-77
2023/02/02 05:15:55;;;;;;;12.80;11.80;;;5.10;99.90;;;;;;4925709;29;20298;-77
2023/02/02 05:18:24;;;;;;;12.47;11.57;;;5.10;99.90;;;;;;4922161;29;20220;-77
2023/02/02 05:20:51;;;;;;;13.40;12.00;;;5.10;99.90;;;;;;4920293;29;20230;-78
2023/02/02 05:23:18;;;;;;;12.60;11.60;;;5.10;99.90;;;;;;4926290;29;20616;-77
2023/02/02 05:25:51;;;;;;;11.70;10.90;;;5.10;99.90;;;;;;4925748;29;20223;-77
2023/02/02 05:28:17;;;;;;;11.57;10.83;;;5.20;99.90;;;;;;4934049;29;20195;-77
2023/02/02 05:30:44;;;;;;;11.93;10.90;;;5.10;99.90;;;;;;4932914;29;20219;-77
2023/02/02 05:33:11;;;;;;;11.87;11.10;;;5.10;99.90;;;;;;4934368;29;20199;-77
2023/02/02 05:35:39;;;;;;;11.83;11.13;;;5.10;99.90;;;;;;4935314;29;20588;-77
2023/02/02 05:38:06;;;;;;;12.17;11.13;;;5.10;99.90;;;;;;4937254;29;20258;-77
2023/02/02 05:40:33;;;;;;;12.10;11.20;;;5.20;99.90;;;;;;4936691;29;20256;-77
2023/02/02 05:43:00;;;;;;;12.43;11.53;;;5.20;99.90;;;;;;4937058;29;20223;-77
2023/02/02 05:45:27;;;;;;;12.73;11.73;;;5.20;99.90;;;;;;4930970;29;20195;-77
2023/02/02 05:47:54;;;;;;;12.47;11.67;;;5.20;99.90;;;;;;4927813;29;20720;-77
2023/02/02 05:50:21;;;;;;;13.40;12.23;;;5.20;99.90;;;;;;4929812;29;20545;-77
2023/02/02 05:53:02;;;;;;;13.47;12.43;;;5.20;99.90;;;;;;4928498;29;20310;-77
2023/02/02 05:55:29;;;;;;;12.77;11.87;;;5.20;99.90;;;;;;4917467;29;20242;-78
2023/02/02 05:57:56;;;;;;;12.97;12.03;;;5.20;99.90;;;;;;4922720;29;20204;-77
2023/02/02 06:00:23;;;;;;;12.30;11.40;;;5.20;99.90;;;;;;4926267;29;20203;-77
2023/02/02 06:02:50;;;;;;;12.53;11.73;;;5.20;99.90;;;;;;4932408;29;20211;-77
2023/02/02 06:05:16;;;;;;;12.97;11.77;;;5.20;99.90;;;;;;4928260;29;20223;-78
2023/02/02 06:07:43;;;;;;;12.33;11.50;;;5.20;99.90;;;;;;4930887;29;20212;-78
2023/02/02 06:10:12;;;;;;;12.23;11.43;;;5.20;99.90;;;;;;4928031;29;20231;-77
2023/02/02 06:12:38;;;;;;;12.83;11.90;;;5.20;99.90;;;;;;4927770;29;20212;-76
2023/02/02 06:15:06;;;;;;;12.50;11.60;;;5.20;99.90;;;;;;4929534;29;20255;-77
2023/02/02 06:17:33;;;;;;;12.80;11.90;;;5.30;99.90;;;;;;4922841;29;20781;-78
2023/02/02 06:20:00;;;;;;;12.53;11.67;;;5.30;99.90;;;;;;4922005;29;20238;-78
2023/02/02 06:22:29;;;;;;;12.83;11.83;;;5.20;99.90;;;;;;4925448;29;20223;-78
2023/02/02 06:24:56;;;;;;;12.00;11.20;;;5.30;99.90;;;;;;4927160;29;20196;-78
2023/02/02 06:27:24;;;;;;;13.00;11.97;;;5.20;99.90;;;;;;4929255;29;20611;-77
2023/02/02 06:29:50;;;;;;;12.00;11.10;;;5.30;99.90;;;;;;4927509;29;20200;-77
2023/02/02 06:32:17;;;;;;;12.10;11.40;;;5.20;99.90;;;;;;4922873;29;20300;-77
2023/02/02 06:34:44;;;;;;;12.30;11.30;;;5.20;99.90;;;;;;4924543;29;20204;-77
2023/02/02 06:37:11;;;;;;;12.40;11.30;;;5.20;99.90;;;;;;4925545;29;20239;-77
2023/02/02 06:39:38;;;;;;;11.97;11.17;;;5.30;99.90;;;;;;4924779;29;20216;-77
2023/02/02 06:42:05;;;;;;;11.70;10.63;;;5.20;99.90;;;;;;4926289;29;20220;-77
2023/02/02 06:44:33;;;;;;;12.27;11.47;;;5.30;99.90;;;;;;4930303;29;20231;-77
2023/02/02 06:46:59;;;;;;;12.27;11.37;;;5.30;99.90;;;;;;4928295;29;20405;-78
2023/02/02 06:49:26;;;;;;;12.00;11.20;;;5.20;99.90;;;;;;4922286;29;20195;-77
2023/02/02 06:51:53;;;;;;;12.60;11.80;;;5.20;99.90;;;;;;4923663;29;20220;-77
2023/02/02 06:54:20;;;;;;;13.20;12.20;;;5.20;99.90;;;;;;4928951;29;20275;-78
2023/02/02 06:56:47;;;;;;;13.13;12.23;;;5.20;99.90;;;;;;4927551;29;20219;-78
2023/02/02 06:59:13;;;;;;;13.10;12.03;;;5.20;99.90;;;;;;4927976;29;20211;-78
2023/02/02 07:01:41;;;;;;;13.27;12.27;;;5.20;99.90;;;;;;4918275;29;20259;-78
2023/02/02 07:04:08;;;;;;;12.70;11.90;;;5.20;99.90;;;;;;4924893;29;20262;-79
2023/02/02 07:06:35;;;;;;;12.70;11.90;;;5.20;99.90;;;;;;4920665;29;20568;-80
2023/02/02 07:09:02;;;;;;;12.00;11.13;;;5.20;99.90;;;;;;4920740;29;20236;-79
2023/02/02 07:11:29;;;;;;;12.30;11.27;;;5.20;99.90;;;;;;4928574;29;20283;-78
2023/02/02 07:13:56;;;;;;;12.57;11.57;;;5.20;99.90;;;;;;4925733;29;20256;-78
2023/02/02 07:16:23;;;;;;;12.40;11.60;;;5.20;99.90;;;;;;4927190;29;20243;-79
2023/02/02 07:18:51;;;;;;;12.77;11.60;;;5.20;99.90;;;;;;4920374;29;20207;-83
2023/02/02 07:21:20;;;;;;;11.90;11.10;;;5.20;99.90;;;;;;4926605;29;20231;-80
2023/02/02 07:23:47;;;;;;;12.60;11.60;;;5.20;99.90;;;;;;4924916;29;20587;-84
2023/02/02 07:26:17;;;;;;;12.57;11.60;;;5.20;99.90;;;;;;4920013;29;20200;-81
2023/02/02 07:28:45;;;;;;;12.30;11.40;;;5.30;99.90;;;;;;4915890;29;20262;-82
2023/02/02 07:31:17;;;;;;;12.63;11.67;;;5.30;99.90;;;;;;4925843;29;20752;-82
2023/02/02 07:33:44;;;;;;;12.23;11.33;;;5.30;99.90;;;;;;4927467;29;20219;-82
2023/02/02 07:36:15;;;;;;;12.57;11.67;;;5.30;99.90;;;;;;4925174;29;20208;-82
2023/02/02 07:38:42;;;;;;;12.70;11.53;;;5.30;99.90;;;;;;4928958;29;20196;-77
2023/02/02 07:41:09;;;;;;;12.20;11.40;;;5.40;99.90;;;;;;4926737;29;20228;-82
2023/02/02 07:43:36;;;;;;;11.97;11.27;;;5.40;99.90;;;;;;4928895;29;20203;-81
2023/02/02 07:46:06;;;;;;;12.80;11.27;;;5.40;99.90;;;;;;4926830;29;20231;-82
2023/02/02 07:48:34;;;;;;;12.07;11.17;;;5.40;99.90;;;;;;4927051;29;20208;-81
2023/02/02 07:51:01;;;;;;;12.33;11.50;;;5.40;99.90;;;;;;4927551;29;20223;-83
2023/02/02 07:53:29;;;;;;;12.70;11.70;;;5.40;99.90;;;;;;4923002;29;20279;-78
2023/02/02 07:56:06;;;;;;;12.30;11.30;;;5.40;99.90;;;;;;4930063;29;20214;-78
2023/02/02 07:58:33;;;;;;;11.50;10.80;;;5.40;99.90;;;;;;4911189;29;20215;-81
2023/02/02 08:01:01;;;;;;;12.10;11.30;;;5.40;99.90;;;;;;4913815;29;20236;-81
2023/02/02 08:03:28;;;;;;;12.50;11.60;;;5.40;99.90;;;;;;4915296;29;20258;-81
2023/02/02 08:05:55;;;;;;;11.90;11.17;;;5.40;99.90;;;;;;4927160;29;20620;-81
2023/02/02 08:08:22;;;;;;;12.90;11.70;;;5.40;99.90;;;;;;4923648;29;20235;-81
2023/02/02 08:10:51;;;;;;;12.93;11.93;;;5.40;99.90;;;;;;4912819;29;20617;-78
2023/02/02 08:13:18;;;;;;;12.47;11.47;;;5.40;99.90;;;;;;4914142;29;20196;-77
2023/02/02 08:15:45;;;;;;;12.10;11.20;;;5.40;99.90;;;;;;4916410;29;20215;-78
2023/02/02 08:18:11;;;;;;;12.33;11.50;;;5.50;99.90;;;;;;4924488;29;20311;-77
2023/02/02 08:20:38;;;;;;;11.90;11.20;;;5.50;99.90;;;;;;4927115;29;20620;-77
2023/02/02 08:23:09;;;;;;;12.50;11.70;;;5.50;99.90;;;;;;4925700;29;20256;-77
2023/02/02 08:25:36;;;;;;;12.80;11.80;;;5.60;99.90;;;;;;4922707;29;20213;-78
2023/02/02 08:28:04;;;;;;;11.93;11.20;;;5.60;99.90;;;;;;4924075;29;20292;-78
2023/02/02 08:30:31;;;;;;;12.67;11.67;;;5.60;99.90;;;;;;4927860;29;20195;-77
2023/02/02 08:32:58;;;;;;;12.57;11.67;;;5.60;99.90;;;;;;4926734;29;20244;-78
2023/02/02 08:35:25;;;;;;;13.03;12.03;;;5.60;99.90;;;;;;4928781;29;20333;-78
2023/02/02 08:37:52;;;;;;;12.10;11.20;;;5.60;99.90;;;;;;4929033;29;20208;-77
2023/02/02 08:40:18;;;;;;;12.10;11.30;;;5.70;99.90;;;;;;4925272;29;20265;-78
2023/02/02 08:42:46;;;;;;;13.57;12.43;;;5.70;99.90;;;;;;4916825;29;20279;-78
2023/02/02 08:45:14;;;;;;;15.60;14.07;;;5.70;99.90;;;;;;4915840;29;20201;-77
2023/02/02 08:47:41;;;;;;;14.10;12.80;;;5.80;99.90;;;;;;4914444;29;20210;-78
2023/02/02 08:50:09;;;;;;;13.63;12.53;;;5.80;99.90;;;;;;4920549;29;20208;-79
2023/02/02 08:52:36;;;;;;;12.37;11.53;;;6.00;99.90;;;;;;4922686;29;20252;-81
2023/02/02 08:55:03;;;;;;;12.40;11.57;;;6.00;99.90;;;;;;4923495;29;20243;-79
2023/02/02 08:57:31;;;;;;;12.33;11.43;;;6.10;99.90;;;;;;4930355;29;20221;-80
2023/02/02 08:59:58;;;;;;;11.97;11.10;;;6.30;99.90;;;;;;4924158;29;20719;-80
2023/02/02 09:02:26;;;;;;;11.67;10.80;;;6.30;99.90;;;;;;4929821;29;20292;-79
2023/02/02 09:04:53;;;;;;;12.30;11.20;;;6.30;99.90;;;;;;4917205;29;20261;-78
2023/02/02 09:07:20;;;;;;;12.17;11.10;;;6.30;99.90;;;;;;4932207;29;20252;-80
2023/02/02 09:09:47;;;;;;;12.07;11.13;;;6.30;99.90;;;;;;4925205;29;20246;-79
2023/02/02 09:12:13;;;;;;;11.90;11.10;;;6.30;99.90;;;;;;4929313;29;20643;-80
2023/02/02 09:14:40;;;;;;;12.20;11.33;;;6.30;99.90;;;;;;4932682;29;20634;-82
2023/02/02 09:17:07;;;;;;;12.03;11.13;;;6.30;99.90;;;;;;4922288;29;20221;-80
2023/02/02 09:19:35;;;;;;;12.50;11.60;;;6.30;99.90;;;;;;4932246;29;20213;-77
2023/02/02 09:22:02;;;;;;;11.97;11.17;;;6.30;99.90;;;;;;4933009;29;20226;-77
2023/02/02 09:24:29;;;;;;;12.10;11.20;;;6.30;99.90;;;;;;4926704;29;20214;-77
2023/02/02 09:26:56;;;;;;;11.80;11.10;;;6.40;99.90;;;;;;4926118;29;20227;-77
2023/02/02 09:29:22;;;;;;;13.13;12.03;;;6.30;99.90;;;;;;4933034;29;20214;-77
2023/02/02 09:31:49;;;;;;;11.60;10.90;;;6.30;99.90;;;;;;4927525;29;20301;-77
2023/02/02 09:34:16;;;;;;;12.17;11.10;;;6.30;99.90;;;;;;4928336;29;20754;-77
2023/02/02 09:36:46;;;;;;;12.40;11.40;;;6.30;99.90;;;;;;4930652;29;20213;-77
2023/02/02 09:39:14;;;;;;;13.07;11.93;;;6.30;99.90;;;;;;4926125;29;20599;-77
2023/02/02 09:42:02;;;;;;;12.20;11.10;;;6.30;99.90;;;;;;4925174;29;20218;-76
2023/02/02 09:44:57;;;;;;;11.70;10.90;;;6.30;99.90;;;;;;4916500;29;20211;-77
2023/02/02 09:47:28;;;;;;;12.63;11.40;;;6.30;99.90;;;;;;4930362;29;20654;-77
2023/02/02 09:50:01;;;;;;;12.10;11.10;;;6.40;99.90;;;;;;4928280;29;20206;-79
2023/02/02 09:52:34;;;;;;;12.23;11.13;;;6.40;99.90;;;;;;4918055;29;20225;-78
2023/02/02 09:55:05;;;;;;;11.83;10.97;;;6.40;99.90;;;;;;4919196;29;20268;-78
2023/02/02 09:57:39;;;;;;;12.53;11.63;;;6.40;99.90;;;;;;4920240;29;20217;-77
2023/02/02 10:00:15;;;;;;;12.13;11.23;;;6.50;99.90;;;;;;4925803;29;20229;-77
2023/02/02 10:02:45;;;;;;;12.50;11.53;;;6.60;99.90;;;;;;4929668;29;20237;-77
2023/02/02 10:05:18;;;;;;;12.60;11.70;;;6.60;99.90;;;;;;4925060;29;20679;-78
2023/02/02 10:07:51;;;;;;;12.73;11.60;;;6.50;99.90;;;;;;4915536;29;20259;-77
2023/02/02 10:10:24;;;;;;;12.43;11.40;;;6.50;99.90;;;;;;4911015;29;20201;-78
2023/02/02 10:12:57;;;;;;;12.57;11.67;;;6.60;99.90;;;;;;4940922;29;20222;-77
2023/02/02 10:15:35;;;;;;;12.17;11.20;;;6.60;99.90;;;;;;4927079;29;20193;-77
2023/02/02 10:18:09;;;;;;;12.00;11.10;;;6.60;99.90;;;;;;4926728;29;20318;-77
2023/02/02 10:20:43;;;;;;;12.20;11.30;;;6.70;99.90;;;;;;4928646;29;20196;-77
2023/02/02 10:23:18;;;;;;;13.07;12.07;;;6.60;99.90;;;;;;4926335;29;20241;-78
2023/02/02 10:25:55;;;;;;;13.00;11.80;;;6.70;99.90;;;;;;4920831;29;20675;-78
2023/02/02 10:28:33;;;;;;;12.30;11.40;;;6.70;99.90;;;;;;4918444;29;20762;-78
2023/02/02 10:31:02;;;;;;;11.73;10.90;;;6.80;99.90;;;;;;4922437;29;20226;-77
2023/02/02 10:33:37;;;;;;;12.17;10.97;;;6.70;99.90;;;;;;4917349;29;20201;-77
2023/02/02 10:36:16;;;;;;;11.80;10.80;;;6.70;99.90;;;;;;4924913;29;20299;-81
2023/02/02 10:38:52;;;;;;;12.20;11.30;;;6.70;99.90;;;;;;4930136;29;20221;-80
2023/02/02 10:41:29;;;;;;;12.17;11.27;;;6.60;99.90;;;;;;4929039;29;20789;-81
2023/02/02 10:44:09;;;;;;;12.10;11.20;;;6.70;99.90;;;;;;4930040;29;20206;-81
2023/02/02 10:46:39;;;;;;;12.40;11.50;;;6.70;99.90;;;;;;4916941;29;20204;-81
2023/02/02 10:49:15;;;;;;;12.60;11.70;;;6.80;99.90;;;;;;4917608;29;20262;-81
2023/02/02 10:51:49;;;;;;;12.80;11.90;;;6.90;99.90;;;;;;4927541;29;20273;-81
2023/02/02 10:54:40;;;;;;;12.90;12.00;;;7.00;99.90;;;;;;4911499;29;20223;-85
2023/02/02 10:57:10;;;;;;;12.53;11.63;;;7.00;99.90;;;;;;4919185;29;20211;-84
2023/02/02 10:59:46;;;;;;;12.73;11.73;;;7.00;99.90;;;;;;4924518;29;20260;-77
2023/02/02 11:02:13;;;;;;;12.70;11.80;;;7.00;99.90;;;;;;4922239;29;20227;-78
2023/02/02 11:07:24;;;;;;;12.73;11.60;;;7.00;99.90;;;;;;4928049;29;20228;-78
2023/02/02 11:09:52;;;;;;;13.10;12.10;;;7.00;99.90;;;;;;4925828;29;20241;-78
2023/02/02 11:12:25;;;;;;;13.23;12.10;;;6.90;99.90;;;;;;4927120;29;20231;-78
2023/02/02 11:15:00;;;;;;;12.53;11.63;;;6.90;99.90;;;;;;4929873;29;20205;-81
2023/02/02 11:17:27;;;;;;;13.00;11.90;;;6.90;99.90;;;;;;4926229;29;20229;-80
2023/02/02 11:19:55;;;;;;;12.70;11.77;;;6.90;99.90;;;;;;4918490;29;20222;-82
2023/02/02 11:22:28;;;;;;;13.03;12.23;;;7.00;99.90;;;;;;4918088;29;20231;-81
2023/02/02 11:24:58;;;;;;;13.20;12.30;;;7.00;99.90;;;;;;4925133;29;20198;-81
2023/02/02 11:27:27;;;;;;;12.40;11.60;;;7.00;99.90;;;;;;4932685;29;20237;-82
2023/02/02 11:29:56;;;;;;;12.10;11.27;;;7.00;99.90;;;;;;4925734;29;20203;-82
2023/02/02 11:32:29;;;;;;;12.03;11.33;;;6.90;99.90;;;;;;4934843;29;20227;-82
2023/02/02 11:35:18;;;;;;;13.60;12.40;;;6.90;99.90;;;;;;4925252;29;20210;-82
2023/02/02 11:37:57;;;;;;;12.77;11.80;;;6.90;99.90;;;;;;4919036;29;20259;-81
2023/02/02 11:40:32;;;;;;;12.07;11.27;;;6.90;99.90;;;;;;4927439;29;20202;-78
2023/02/02 11:43:03;;;;;;;12.33;11.27;;;6.80;99.90;;;;;;4926346;29;20218;-78
2023/02/02 11:45:35;;;;;;;12.53;11.73;;;6.90;99.90;;;;;;4909487;29;20208;-82
2023/02/02 11:48:05;;;;;;;12.40;11.60;;;6.90;99.90;;;;;;4928969;29;20290;-81
2023/02/02 11:50:33;;;;;;;12.33;11.33;;;6.90;99.90;;;;;;4923388;29;20660;-83
2023/02/02 11:53:00;;;;;;;13.13;12.20;;;7.00;99.90;;;;;;4924917;29;20234;-82
2023/02/02 11:55:31;;;;;;;12.17;11.17;;;7.00;99.90;;;;;;4931783;29;20209;-82
2023/02/02 11:58:26;;;;;;;11.47;10.67;;;7.00;99.90;;;;;;4923789;29;20215;-82
2023/02/02 12:00:56;;;;;;;12.03;11.23;;;7.00;99.90;;;;;;4921072;29;20293;-83
2023/02/02 12:03:32;;;;;;;11.67;10.83;;;7.10;99.90;;;;;;4927894;29;20703;-78
2023/02/02 12:06:01;;;;;;;12.30;11.37;;;7.00;99.90;;;;;;4916845;29;20235;-77
2023/02/02 12:08:30;;;;;;;12.13;11.23;;;7.00;99.90;;;;;;4933802;29;20203;-78
2023/02/02 12:11:01;;;;;;;11.70;10.90;;;7.00;99.90;;;;;;4921398;29;20321;-77
2023/02/02 12:13:47;;;;;;;12.43;11.50;;;7.00;99.90;;;;;;4925938;29;20207;-77
2023/02/02 12:16:24;;;;;;;12.10;11.30;;;7.10;99.90;;;;;;4926181;29;20267;-77
2023/02/02 12:19:03;;;;;;;12.13;11.33;;;7.10;99.90;;;;;;4916213;29;20327;-79
2023/02/02 12:21:38;;;;;;;12.67;11.53;;;7.10;99.90;;;;;;4912065;29;20223;-75
2023/02/02 12:24:23;;;;;;;12.03;11.07;;;7.10;99.90;;;;;;4911005;29;20268;-77
2023/02/02 12:27:00;;;;;;;12.53;11.53;;;7.10;99.90;;;;;;4915526;29;20208;-77
2023/02/02 12:29:40;;;;;;;12.47;11.53;;;7.10;99.90;;;;;;4938890;29;20203;-77
2023/02/02 12:32:21;;;;;;;12.30;11.13;;;7.10;99.90;;;;;;4937974;29;20256;-78
2023/02/02 12:34:57;;;;;;;12.13;11.07;;;7.10;99.90;;;;;;4925153;29;20206;-77
2023/02/02 12:37:36;;;;;;;12.57;11.57;;;7.10;99.90;;;;;;4925268;29;20221;-78
2023/02/02 12:40:20;;;;;;;11.83;11.00;;;7.20;99.90;;;;;;4925823;29;20203;-78
2023/02/02 12:43:06;;;;;;;12.47;11.60;;;7.20;99.90;;;;;;4923775;29;20727;-78
2023/02/02 12:45:51;;;;;;;13.00;11.93;;;7.10;99.90;;;;;;4920086;29;20205;-78
2023/02/02 12:48:41;;;;;;;12.37;11.57;;;7.10;99.90;;;;;;4930202;29;20213;-77
2023/02/02 12:51:18;;;;;;;12.70;11.73;;;7.10;99.90;;;;;;4922634;29;20704;-78
2023/02/02 12:54:02;;;;;;;12.73;11.73;;;7.10;99.90;;;;;;4927568;29;20231;-78
2023/02/02 12:56:40;;;;;;;12.20;11.30;;;7.10;99.90;;;;;;4926063;29;20250;-78
2023/02/02 12:59:22;;;;;;;11.93;11.03;;;7.20;99.90;;;;;;4924880;29;20218;-77
2023/02/02 13:02:03;;;;;;;11.97;11.23;;;7.20;99.90;;;;;;4927113;29;20289;-78
2023/02/02 13:04:46;;;;;;;12.40;11.60;;;7.20;99.90;;;;;;4923924;29;20732;-78
2023/02/02 13:07:35;;;;;;;12.63;11.63;;;7.10;99.90;;;;;;4906878;29;20212;-78
2023/02/02 13:10:20;;;;;;;12.50;11.60;;;7.20;99.90;;;;;;4914560;29;20228;-79
2023/02/02 13:12:52;;;;;;;12.40;11.60;;;7.10;99.90;;;;;;4934484;29;20222;-82
2023/02/02 13:15:23;;;;;;;12.27;11.33;;;7.00;99.90;;;;;;4923047;29;20206;-77
2023/02/02 13:17:53;;;;;;;13.00;11.80;;;7.00;99.90;;;;;;4914329;29;20206;-79
2023/02/02 13:20:28;;;;;;;12.63;11.60;;;6.90;99.90;;;;;;4917823;29;20200;-78
2023/02/02 13:23:00;;;;;;;13.07;11.97;;;6.90;99.90;;;;;;4914711;29;20233;-78
2023/02/02 13:25:30;;;;;;;12.33;11.43;;;6.90;99.90;;;;;;4916388;29;20274;-78
2023/02/02 13:28:00;;;;;;;12.33;11.43;;;6.90;99.90;;;;;;4925892;29;20287;-78
2023/02/02 13:30:34;;;;;;;12.97;11.97;;;6.90;99.90;;;;;;4924921;29;20264;-78
2023/02/02 13:33:05;;;;;;;12.90;11.70;;;6.90;99.90;;;;;;4915016;29;20221;-78
2023/02/02 13:35:38;;;;;;;12.47;11.70;;;6.80;99.90;;;;;;4911947;29;20335;-78
2023/02/02 13:38:14;;;;;;;12.20;11.30;;;6.90;99.90;;;;;;4921591;29;20210;-78
2023/02/02 13:40:43;;;;;;;12.50;11.70;;;6.90;99.90;;;;;;4924595;29;20207;-78
2023/02/02 13:43:25;;;;;;;12.00;11.10;;;6.90;99.90;;;;;;4926542;29;20675;-78
2023/02/02 13:46:05;;;;;;;12.13;11.33;;;7.00;99.90;;;;;;4920628;29;20207;-78
2023/02/02 13:48:39;;;;;;;12.13;11.43;;;7.00;99.90;;;;;;4926230;29;20257;-78
2023/02/02 13:51:38;;;;;;;12.13;11.30;;;7.00;99.90;;;;;;4925263;29;20218;-78
2023/02/02 13:54:37;;;;;;;12.63;11.63;;;6.90;99.90;;;;;;4927078;29;20742;-79
2023/02/02 13:57:18;;;;;;;12.03;11.23;;;6.80;99.90;;;;;;4927818;29;20233;-77
2023/02/02 13:59:54;;;;;;;12.40;11.47;;;6.70;99.90;;;;;;4925157;29;20800;-78
2023/02/02 14:02:29;;;;;;;12.97;12.27;;;6.60;99.90;;;;;;4933164;29;20617;-81
2023/02/02 14:04:58;;;;;;;13.70;12.60;;;6.60;99.90;;;;;;4926642;29;20670;-79
2023/02/02 14:07:30;;;;;;;13.23;12.43;;;6.50;99.90;;;;;;4934306;29;20207;-78
2023/02/02 14:09:57;;;;;;;12.50;11.73;;;6.50;99.90;;;;;;4925398;29;20262;-78
2023/02/02 14:12:30;;;;;;;12.50;11.80;;;6.50;99.90;;;;;;4933961;29;20223;-78
2023/02/02 14:14:57;;;;;;;12.47;11.63;;;6.40;99.90;;;;;;4929096;29;20269;-78
2023/02/02 14:17:52;;;;;;;12.53;11.70;;;6.40;99.90;;;;;;4929616;29;20253;-80
2023/02/02 14:20:45;;;;;;;12.83;11.93;;;6.40;99.90;;;;;;4927221;29;20294;-79
2023/02/02 14:23:51;;;;;;;12.37;11.57;;;6.40;99.90;;;;;;4929284;29;20270;-78
2023/02/02 14:26:39;;;;;;;12.50;11.60;;;6.50;99.90;;;;;;4912914;29;20217;-78
2023/02/02 14:29:38;;;;;;;12.83;11.97;;;6.50;99.90;;;;;;4928973;29;20203;-82
2023/02/02 14:32:33;;;;;;;12.70;11.80;;;6.50;99.90;;;;;;4930825;29;20229;-82
2023/02/02 14:35:40;;;;;;;12.40;11.60;;;6.50;99.90;;;;;;4931496;29;20237;-82
2023/02/02 14:38:13;;;;;;;12.57;11.67;;;6.60;99.90;;;;;;4932171;29;20210;-80
2023/02/02 14:40:49;;;;;;;12.87;12.00;;;6.60;99.90;;;;;;4921640;29;20209;-80
2023/02/02 14:46:33;;;;;;;12.17;11.17;;;6.50;99.90;;;;;;4922290;29;20728;-82
2023/02/02 14:49:25;;;;;;;12.03;11.30;;;6.50;99.90;;;;;;4928670;29;20201;-82
2023/02/02 14:52:01;;;;;;;13.00;11.90;;;6.60;99.90;;;;;;4938453;28;20247;-82
2023/02/02 14:54:42;;;;;;;12.90;12.00;;;6.60;99.90;;;;;;4916391;29;20285;-82
2023/02/02 14:57:26;;;;;;;12.60;11.90;;;6.60;99.90;;;;;;4915818;29;20208;-81
2023/02/02 14:59:55;;;;;;;13.37;12.47;;;6.60;99.90;;;;;;4924930;29;20726;-81
2023/02/02 15:02:24;;;;;;;13.50;12.67;;;6.60;99.90;;;;;;4929103;29;20226;-82
2023/02/02 15:04:51;;;;;;;13.60;12.70;;;6.70;99.90;;;;;;4930166;29;20207;-81
2023/02/02 15:07:53;;;;;;;12.57;11.87;;;6.70;99.90;;;;;;4930645;29;20233;-82
2023/02/02 15:10:53;;;;;;;12.97;12.07;;;6.70;99.90;;;;;;4920917;29;20276;-80
2023/02/02 15:13:23;;;;;;;12.43;11.60;;;6.70;99.90;;;;;;4932604;29;20770;-80
2023/02/02 15:16:00;;;;;;;12.27;11.57;;;6.70;99.90;;;;;;4918879;29;20210;-81
2023/02/02 15:18:33;;;;;;;13.77;12.67;;;6.70;99.90;;;;;;4932572;29;20206;-80
2023/02/02 15:21:06;;;;;;;13.37;12.47;;;6.60;99.90;;;;;;4907097;29;20263;-82
2023/02/02 15:23:38;;;;;;;13.53;12.53;;;6.60;99.90;;;;;;4932773;29;20202;-81
2023/02/02 15:26:08;;;;;;;13.20;12.30;;;6.60;99.90;;;;;;4933960;29;20224;-80
2023/02/02 15:28:42;;;;;;;13.70;12.70;;;6.60;99.90;;;;;;4928047;29;20220;-82
2023/02/02 15:31:21;;;;;;;13.30;12.30;;;6.50;99.90;;;;;;4927639;29;20282;-78
2023/02/02 15:38:39;;;;;;;14.17;13.23;;;6.50;99.90;;;;;;4928284;29;20228;-81
2023/02/02 15:49:31;;;;;;;13.37;12.53;;;6.40;99.90;;;;;;4919118;29;20224;-82
2023/02/02 15:52:01;;;;;;;14.90;13.40;;;6.40;99.90;;;;;;4916940;29;20681;-82
2023/02/02 15:54:30;;;;;;;13.90;12.90;;;6.30;99.90;;;;;;4923634;29;20258;-82
2023/02/02 15:56:59;;;;;;;13.63;12.73;;;6.30;99.90;;;;;;4916843;29;20222;-83
2023/02/02 15:59:37;;;;;;;13.13;12.33;;;6.30;99.90;;;;;;4907717;29;20217;-82
2023/02/02 16:02:20;;;;;;;14.20;13.20;;;6.30;99.90;;;;;;4913297;29;20233;-84
2023/02/02 16:05:38;;;;;;;13.80;12.90;;;6.30;99.90;;;;;;4913733;29;20426;-83
2023/02/02 16:08:12;;;;;;;14.00;13.10;;;6.30;99.90;;;;;;4921081;29;20295;-84
2023/02/02 16:10:39;;;;;;;14.37;13.20;;;6.20;99.90;;;;;;4924207;29;20202;-82
2023/02/02 16:13:06;;;;;;;14.20;12.93;;;6.20;99.90;;;;;;4922359;29;20206;-81
2023/02/02 16:15:32;;;;;;;14.00;12.80;;;6.20;99.90;;;;;;4924671;29;20213;-83
2023/02/02 16:18:00;;;;;;;14.67;13.63;;;6.20;99.90;;;;;;4923564;29;20202;-82
2023/02/02 16:20:28;;;;;;;13.77;12.83;;;6.20;99.90;;;;;;4935309;29;20719;-83